Time;durP1;ratioP1;P1;durP2;ratioP2;P2;SDS_P1;SDS_P2;PMS_P1;PMS_P2;Temp;Humidity;BMP_temperature;BMP_pressure;BME280_temperature;BME280_humidity;BME280_pressure;Samples;Min_cycle;Max_cycle;Signal;HPM_P1;HPM_P2
2021/10/20 00:00:22;;;;;;;5.10;3.85;;;16.00;99.90;;;;;;5096730;28;20024;-68
2021/10/20 00:02:49;;;;;;;5.50;3.92;;;15.90;99.90;;;;;;5096630;28;20012;-65
2021/10/20 00:05:16;;;;;;;5.50;4.05;;;15.90;99.90;;;;;;5096613;28;20098;-68
2021/10/20 00:07:42;;;;;;;8.25;4.43;;;16.00;99.90;;;;;;5096211;28;20054;-68
2021/10/20 00:10:08;;;;;;;5.18;3.85;;;16.00;99.90;;;;;;5095011;28;20059;-68
2021/10/20 00:12:34;;;;;;;7.15;4.18;;;15.90;99.90;;;;;;5096463;28;20020;-69
2021/10/20 00:14:59;;;;;;;10.00;3.88;;;15.80;99.90;;;;;;5096371;28;20043;-68
2021/10/20 00:17:25;;;;;;;6.32;4.05;;;15.80;99.90;;;;;;5096355;28;20073;-68
2021/10/20 00:19:56;;;;;;;5.80;3.97;;;16.00;99.90;;;;;;5096031;28;20377;-68
2021/10/20 00:22:21;;;;;;;6.35;4.10;;;15.80;99.90;;;;;;5095701;28;20028;-68
2021/10/20 00:24:47;;;;;;;9.93;4.22;;;15.80;99.90;;;;;;5096185;28;20024;-68
2021/10/20 00:27:13;;;;;;;7.60;3.85;;;15.80;99.90;;;;;;5095470;28;20047;-68
2021/10/20 00:29:38;;;;;;;8.57;4.03;;;15.80;99.90;;;;;;5096070;28;20377;-68
2021/10/20 00:32:04;;;;;;;5.53;3.70;;;15.90;99.90;;;;;;5096079;28;20025;-68
2021/10/20 00:34:29;;;;;;;7.50;3.67;;;16.10;99.90;;;;;;5095733;28;20537;-68
2021/10/20 00:36:55;;;;;;;6.07;4.13;;;16.00;99.90;;;;;;5095955;28;20024;-68
2021/10/20 00:39:21;;;;;;;6.95;4.38;;;15.90;99.90;;;;;;5095875;28;20381;-68
2021/10/20 00:41:46;;;;;;;5.47;4.03;;;15.80;99.90;;;;;;5095597;28;20111;-68
2021/10/20 00:44:12;;;;;;;6.55;4.55;;;15.90;99.90;;;;;;5077109;28;20043;-68
2021/10/20 00:46:37;;;;;;;6.82;4.10;;;15.90;99.90;;;;;;5093952;28;20060;-68
2021/10/20 00:49:03;;;;;;;6.75;4.00;;;15.90;99.90;;;;;;5093499;28;20021;-67
2021/10/20 00:51:29;;;;;;;4.70;3.42;;;15.80;99.90;;;;;;5095187;28;20017;-67
2021/10/20 00:53:57;;;;;;;6.85;4.20;;;15.80;99.90;;;;;;5093825;28;20024;-69
2021/10/20 00:56:23;;;;;;;6.70;4.13;;;15.80;99.90;;;;;;5095580;28;20024;-68
2021/10/20 00:58:49;;;;;;;7.35;4.00;;;15.80;99.90;;;;;;5076846;28;20024;-68
2021/10/20 01:01:16;;;;;;;7.13;4.30;;;15.80;99.90;;;;;;5094538;28;20027;-68
2021/10/20 01:03:43;;;;;;;6.82;4.20;;;15.90;99.90;;;;;;5095446;28;20020;-68
2021/10/20 01:06:08;;;;;;;4.80;3.78;;;16.00;99.90;;;;;;5095062;28;20381;-66
2021/10/20 01:08:34;;;;;;;4.57;3.70;;;15.90;99.90;;;;;;5094221;28;20028;-68
2021/10/20 01:11:00;;;;;;;6.03;4.30;;;16.00;99.90;;;;;;5093818;28;20016;-66
2021/10/20 01:13:26;;;;;;;6.75;4.25;;;16.00;99.90;;;;;;5095272;28;20362;-68
2021/10/20 01:15:51;;;;;;;4.72;3.30;;;15.90;99.90;;;;;;5095231;28;20046;-69
2021/10/20 01:18:17;;;;;;;8.02;3.90;;;16.00;99.90;;;;;;5095151;28;20028;-68
2021/10/20 01:20:43;;;;;;;5.88;3.90;;;15.90;99.90;;;;;;5095130;28;20031;-68
2021/10/20 01:23:09;;;;;;;7.53;4.03;;;15.90;99.90;;;;;;5093270;28;20028;-68
2021/10/20 01:25:35;;;;;;;6.97;4.00;;;16.10;99.90;;;;;;5094693;28;20485;-68
2021/10/20 01:28:00;;;;;;;6.03;3.80;;;16.10;99.90;;;;;;5094422;28;20111;-68
2021/10/20 01:30:26;;;;;;;5.65;3.92;;;16.10;99.90;;;;;;5094949;28;20032;-68
2021/10/20 01:32:52;;;;;;;4.68;3.47;;;16.20;99.90;;;;;;5094899;28;20476;-68
2021/10/20 01:35:17;;;;;;;5.97;3.90;;;16.10;99.90;;;;;;5094853;28;20020;-68
2021/10/20 01:37:44;;;;;;;8.48;4.20;;;16.00;99.90;;;;;;5094822;28;20102;-68
2021/10/20 01:40:10;;;;;;;5.13;3.78;;;16.10;99.90;;;;;;5094460;28;20483;-68
2021/10/20 01:42:37;;;;;;;6.22;3.88;;;16.10;99.90;;;;;;5094480;28;20028;-68
2021/10/20 01:45:08;;;;;;;4.05;3.63;;;16.10;99.90;;;;;;5094386;28;20036;-68
2021/10/20 01:47:33;;;;;;;7.35;4.10;;;16.00;99.90;;;;;;5094624;28;20479;-69
2021/10/20 01:49:59;;;;;;;5.32;3.97;;;16.00;99.90;;;;;;5094615;28;20052;-68
2021/10/20 01:52:24;;;;;;;6.75;3.92;;;16.00;99.90;;;;;;5094590;28;20073;-68
2021/10/20 01:54:50;;;;;;;6.13;3.78;;;16.00;99.90;;;;;;5094557;28;20073;-67
2021/10/20 01:57:17;;;;;;;6.05;3.67;;;16.00;99.90;;;;;;5094240;28;20028;-68
2021/10/20 01:59:42;;;;;;;5.05;3.83;;;16.00;99.90;;;;;;5094206;28;20016;-69
2021/10/20 02:02:17;;;;;;;5.53;4.10;;;15.90;99.90;;;;;;5093915;28;20027;-69
2021/10/20 02:04:43;;;;;;;7.93;4.10;;;16.10;99.90;;;;;;5094130;28;20020;-69
2021/10/20 02:07:08;;;;;;;6.05;4.30;;;16.00;99.90;;;;;;5076567;28;20031;-69
2021/10/20 02:09:34;;;;;;;5.72;4.13;;;16.00;99.90;;;;;;5094383;28;20028;-68
2021/10/20 02:11:59;;;;;;;7.25;4.50;;;15.90;99.90;;;;;;5094056;28;20473;-68
2021/10/20 02:14:25;;;;;;;6.40;4.03;;;16.00;99.90;;;;;;5093990;28;20020;-68
2021/10/20 02:16:50;;;;;;;4.95;4.20;;;16.00;99.90;;;;;;5094261;28;20400;-68
2021/10/20 02:19:16;;;;;;;8.13;4.15;;;16.10;99.90;;;;;;5094236;28;20518;-68
2021/10/20 02:21:41;;;;;;;6.10;4.63;;;16.10;99.90;;;;;;5094237;28;20030;-72
2021/10/20 02:24:07;;;;;;;4.93;4.18;;;16.10;99.90;;;;;;5093903;28;20020;-67
2021/10/20 02:26:32;;;;;;;6.18;4.28;;;16.10;99.90;;;;;;5093610;28;20066;-68
2021/10/20 02:28:58;;;;;;;6.40;4.15;;;16.10;99.90;;;;;;5094117;28;20077;-67
2021/10/20 02:31:24;;;;;;;6.75;4.30;;;16.20;99.90;;;;;;5092965;28;20020;-69
2021/10/20 02:33:50;;;;;;;8.93;4.15;;;16.20;99.90;;;;;;5093813;28;20074;-67
2021/10/20 02:36:15;;;;;;;6.40;3.85;;;16.10;99.90;;;;;;5094061;28;20023;-68
2021/10/20 02:38:41;;;;;;;8.77;3.83;;;16.10;99.90;;;;;;5094036;28;20468;-68
2021/10/20 02:41:06;;;;;;;8.07;4.45;;;16.10;99.90;;;;;;5094030;28;20431;-68
2021/10/20 02:43:35;;;;;;;6.53;4.50;;;16.10;99.90;;;;;;5093758;28;20437;-68
2021/10/20 02:46:01;;;;;;;7.95;4.35;;;16.20;99.90;;;;;;5092788;28;20028;-69
2021/10/20 02:48:26;;;;;;;8.57;4.32;;;16.20;99.90;;;;;;5092165;28;20028;-69
2021/10/20 02:50:52;;;;;;;9.90;4.40;;;16.00;99.90;;;;;;5092772;28;20032;-69
2021/10/20 02:53:17;;;;;;;7.53;4.35;;;16.00;99.90;;;;;;5093342;28;20047;-69
2021/10/20 02:55:43;;;;;;;6.00;4.63;;;16.10;99.90;;;;;;5092729;28;20469;-69
2021/10/20 02:58:08;;;;;;;6.60;4.60;;;16.10;99.90;;;;;;5093836;28;20032;-68
2021/10/20 03:00:34;;;;;;;5.15;4.30;;;16.00;99.90;;;;;;5093564;28;20025;-69
2021/10/20 03:03:00;;;;;;;9.18;4.60;;;16.00;99.90;;;;;;5091988;28;20020;-69
2021/10/20 03:05:25;;;;;;;5.32;4.38;;;16.00;99.90;;;;;;5093702;28;20024;-69
2021/10/20 03:07:52;;;;;;;7.00;4.70;;;16.00;99.90;;;;;;5093217;28;20020;-69
2021/10/20 03:10:19;;;;;;;5.78;4.35;;;15.90;99.90;;;;;;5093460;28;20012;-69
2021/10/20 03:12:44;;;;;;;5.72;4.25;;;16.00;99.90;;;;;;5094554;28;20446;-69
2021/10/20 03:15:11;;;;;;;8.80;4.43;;;16.00;99.90;;;;;;5097557;28;20031;-69
2021/10/20 03:17:38;;;;;;;5.70;4.75;;;16.10;99.90;;;;;;5097224;28;20028;-70
2021/10/20 03:20:08;;;;;;;8.40;4.85;;;16.10;99.90;;;;;;5095643;28;20162;-69
2021/10/20 03:22:36;;;;;;;6.43;4.30;;;16.00;99.90;;;;;;5097457;28;20397;-69
2021/10/20 03:25:02;;;;;;;5.28;4.57;;;16.00;99.90;;;;;;5097363;28;20020;-69
2021/10/20 03:27:28;;;;;;;7.25;4.95;;;16.10;99.90;;;;;;5096613;28;20429;-69
2021/10/20 03:29:54;;;;;;;7.53;4.68;;;16.00;99.90;;;;;;5097293;28;20026;-69
2021/10/20 03:32:19;;;;;;;7.20;4.70;;;16.00;99.90;;;;;;5097244;28;20024;-68
2021/10/20 03:34:44;;;;;;;7.47;4.63;;;15.90;99.90;;;;;;5096933;28;20024;-67
2021/10/20 03:37:10;;;;;;;7.13;4.75;;;16.00;99.90;;;;;;5097129;28;20461;-68
2021/10/20 03:39:36;;;;;;;5.93;4.80;;;16.10;99.90;;;;;;5096480;28;20089;-68
2021/10/20 03:42:01;;;;;;;9.00;4.90;;;15.90;99.90;;;;;;5097091;28;20030;-68
2021/10/20 03:44:27;;;;;;;6.38;4.90;;;16.00;99.90;;;;;;5095571;28;20089;-67
2021/10/20 03:46:52;;;;;;;9.63;4.65;;;16.00;99.90;;;;;;5096897;28;20119;-67
2021/10/20 03:49:18;;;;;;;9.63;4.65;;;16.00;99.90;;;;;;5096636;28;20034;-68
2021/10/20 03:51:43;;;;;;;7.18;5.32;;;15.90;99.90;;;;;;5096882;28;20024;-67
2021/10/20 03:54:09;;;;;;;8.45;4.70;;;15.80;99.90;;;;;;5096522;28;20058;-67
2021/10/20 03:56:34;;;;;;;6.60;5.07;;;15.90;99.90;;;;;;5095623;28;20028;-68
2021/10/20 03:59:00;;;;;;;8.57;5.32;;;16.00;99.90;;;;;;5078061;28;20591;-68
2021/10/20 04:01:26;;;;;;;8.82;4.80;;;16.00;99.90;;;;;;5096703;28;20149;-68
2021/10/20 04:03:52;;;;;;;9.00;4.65;;;16.20;99.90;;;;;;5078110;28;20035;-68
2021/10/20 04:06:17;;;;;;;12.20;4.80;;;16.20;99.90;;;;;;5095937;28;20032;-68
2021/10/20 04:08:43;;;;;;;6.43;4.80;;;16.20;99.90;;;;;;5095106;28;20035;-68
2021/10/20 04:11:08;;;;;;;10.23;5.00;;;16.30;99.90;;;;;;5096504;28;20023;-68
2021/10/20 04:13:34;;;;;;;8.55;4.85;;;16.30;99.90;;;;;;5077821;28;20027;-68
2021/10/20 04:15:59;;;;;;;7.93;5.07;;;16.30;99.90;;;;;;5077755;28;20028;-68
2021/10/20 04:18:25;;;;;;;8.75;5.20;;;16.30;99.90;;;;;;5096657;28;20343;-68
2021/10/20 04:20:51;;;;;;;8.98;4.72;;;16.20;99.90;;;;;;5096326;28;20028;-68
2021/10/20 04:23:16;;;;;;;6.45;4.90;;;16.20;99.90;;;;;;5096149;28;20035;-68
2021/10/20 04:25:42;;;;;;;9.82;5.70;;;16.10;99.90;;;;;;5095788;28;20035;-68
2021/10/20 04:28:08;;;;;;;9.13;5.43;;;16.10;99.90;;;;;;5094426;28;20027;-68
2021/10/20 04:30:33;;;;;;;10.40;5.20;;;16.10;99.90;;;;;;5094665;28;20461;-68
2021/10/20 04:32:59;;;;;;;9.93;5.53;;;16.00;99.90;;;;;;5096016;28;20030;-68
2021/10/20 04:35:25;;;;;;;8.02;5.30;;;16.00;99.90;;;;;;5096302;28;20141;-68
2021/10/20 04:37:51;;;;;;;8.02;5.32;;;16.00;99.90;;;;;;5095422;28;20020;-68
2021/10/20 04:40:16;;;;;;;7.03;5.82;;;15.90;99.90;;;;;;5095909;28;20028;-68
2021/10/20 04:42:42;;;;;;;9.32;5.70;;;16.00;99.90;;;;;;5095858;28;20039;-68
2021/10/20 04:45:09;;;;;;;8.05;5.45;;;15.90;99.90;;;;;;5094683;28;20028;-68
2021/10/20 04:47:34;;;;;;;11.00;5.38;;;15.90;99.90;;;;;;5095423;28;20028;-68
2021/10/20 04:50:02;;;;;;;10.02;5.57;;;15.90;99.90;;;;;;5095724;28;20023;-68
2021/10/20 04:52:29;;;;;;;9.40;5.57;;;15.90;99.90;;;;;;5094248;28;20020;-69
2021/10/20 04:54:55;;;;;;;9.82;5.72;;;15.90;99.90;;;;;;5095113;28;20012;-69
2021/10/20 04:57:20;;;;;;;8.18;5.47;;;15.90;99.90;;;;;;5094988;28;20077;-68
2021/10/20 04:59:46;;;;;;;7.20;5.30;;;15.90;99.90;;;;;;5076830;28;20031;-68
2021/10/20 05:02:11;;;;;;;13.57;6.60;;;15.90;99.90;;;;;;5093698;28;20386;-68
2021/10/20 05:04:37;;;;;;;14.35;6.13;;;16.00;99.90;;;;;;5095456;28;20038;-68
2021/10/20 05:07:03;;;;;;;9.68;6.10;;;15.90;99.90;;;;;;5094068;28;20032;-68
2021/10/20 05:09:28;;;;;;;11.63;5.57;;;15.90;99.90;;;;;;5095072;28;20031;-71
2021/10/20 05:11:54;;;;;;;9.38;5.90;;;15.90;99.90;;;;;;5093885;28;20404;-72
2021/10/20 05:14:19;;;;;;;10.77;5.30;;;15.90;99.90;;;;;;5094317;28;20032;-72
2021/10/20 05:16:45;;;;;;;10.50;6.20;;;15.80;99.90;;;;;;5095230;28;20031;-68
2021/10/20 05:19:10;;;;;;;8.30;5.95;;;15.80;99.90;;;;;;5095158;28;20025;-69
2021/10/20 05:21:36;;;;;;;8.40;5.82;;;15.80;99.90;;;;;;5095150;28;20530;-69
2021/10/20 05:24:02;;;;;;;8.15;5.65;;;15.80;99.90;;;;;;5094999;28;20032;-70
2021/10/20 05:26:27;;;;;;;7.70;5.47;;;15.80;99.90;;;;;;5093010;28;20055;-69
2021/10/20 05:28:53;;;;;;;8.63;5.65;;;15.90;99.90;;;;;;5094711;28;20095;-69
2021/10/20 05:31:18;;;;;;;9.88;5.60;;;15.80;99.90;;;;;;5076736;28;20066;-69
2021/10/20 05:33:44;;;;;;;9.50;5.95;;;15.80;99.90;;;;;;5093122;28;20020;-70
2021/10/20 05:36:10;;;;;;;12.20;6.35;;;15.80;99.90;;;;;;5093201;28;20081;-69
2021/10/20 05:38:36;;;;;;;8.95;5.72;;;15.80;99.90;;;;;;5093053;28;20027;-69
2021/10/20 05:41:03;;;;;;;11.25;6.18;;;15.80;99.90;;;;;;5094791;28;20020;-69
2021/10/20 05:43:29;;;;;;;7.60;6.20;;;15.70;99.90;;;;;;5093277;28;20020;-69
2021/10/20 05:45:55;;;;;;;9.38;6.38;;;15.70;99.90;;;;;;5076045;28;20024;-69
2021/10/20 05:48:24;;;;;;;10.77;5.70;;;15.70;99.90;;;;;;5094393;28;20111;-69
2021/10/20 05:50:50;;;;;;;9.57;5.90;;;15.70;99.90;;;;;;5094594;28;20020;-70
2021/10/20 05:53:16;;;;;;;9.68;6.78;;;15.80;99.90;;;;;;5094468;28;20458;-70
2021/10/20 05:55:43;;;;;;;8.98;6.07;;;15.80;99.90;;;;;;5075705;28;20027;-70
2021/10/20 05:58:09;;;;;;;9.20;6.20;;;15.80;99.90;;;;;;5094227;28;20099;-71
2021/10/20 06:00:35;;;;;;;11.77;6.25;;;15.80;99.90;;;;;;5093751;28;20097;-69
2021/10/20 06:03:00;;;;;;;7.90;6.35;;;15.80;99.90;;;;;;5075867;28;20020;-69
2021/10/20 06:05:26;;;;;;;13.77;6.55;;;15.80;99.90;;;;;;5093695;28;20024;-69
2021/10/20 06:07:51;;;;;;;10.48;6.93;;;15.80;99.90;;;;;;5093684;28;20115;-69
2021/10/20 06:10:17;;;;;;;8.18;6.43;;;15.90;99.90;;;;;;5093451;28;20016;-71
2021/10/20 06:12:44;;;;;;;11.40;6.03;;;15.80;99.90;;;;;;5092702;28;20021;-69
2021/10/20 06:15:11;;;;;;;13.23;6.68;;;15.90;99.90;;;;;;5093664;28;20070;-71
2021/10/20 06:17:37;;;;;;;9.80;6.32;;;15.90;99.90;;;;;;5093997;28;20141;-69
2021/10/20 06:20:05;;;;;;;11.20;7.00;;;15.80;99.90;;;;;;5110966;28;20496;-70
2021/10/20 06:22:31;;;;;;;10.57;6.80;;;15.90;99.90;;;;;;5104954;28;20027;-72
2021/10/20 06:24:56;;;;;;;13.48;7.10;;;15.90;99.90;;;;;;5093779;28;20398;-72
2021/10/20 06:27:22;;;;;;;9.82;6.80;;;16.00;99.90;;;;;;5093254;28;20135;-72
2021/10/20 06:29:47;;;;;;;9.90;6.22;;;15.90;99.90;;;;;;5096056;28;20020;-72
2021/10/20 06:32:13;;;;;;;9.00;7.00;;;16.00;99.90;;;;;;5094410;28;20036;-72
2021/10/20 06:34:39;;;;;;;11.20;7.10;;;15.90;99.90;;;;;;5093766;28;20020;-72
2021/10/20 06:37:04;;;;;;;12.60;7.03;;;15.90;99.90;;;;;;5105857;28;20032;-72
2021/10/20 06:39:30;;;;;;;11.85;6.93;;;15.90;99.90;;;;;;5109663;28;20043;-72
2021/10/20 06:41:56;;;;;;;9.88;7.35;;;16.00;99.90;;;;;;5092496;28;20031;-72
2021/10/20 06:44:21;;;;;;;11.00;6.93;;;16.00;99.90;;;;;;5093003;28;20028;-72
2021/10/20 06:46:47;;;;;;;9.27;6.57;;;16.00;99.90;;;;;;5097007;28;20028;-72
2021/10/20 06:49:13;;;;;;;12.50;7.30;;;16.10;99.90;;;;;;5106440;28;20044;-72
2021/10/20 06:51:39;;;;;;;10.43;6.82;;;16.10;99.90;;;;;;5089018;28;20032;-72
2021/10/20 06:54:05;;;;;;;11.35;6.93;;;16.10;99.90;;;;;;5099549;28;20032;-72
2021/10/20 06:56:31;;;;;;;10.43;7.07;;;16.10;99.90;;;;;;5100017;28;20028;-72
2021/10/20 06:58:56;;;;;;;11.35;6.60;;;16.00;99.90;;;;;;5096077;28;20039;-67
2021/10/20 07:01:22;;;;;;;12.77;6.85;;;16.00;99.90;;;;;;5078327;28;20373;-67
2021/10/20 07:03:47;;;;;;;12.20;7.43;;;16.00;99.90;;;;;;5093862;28;20184;-67
2021/10/20 07:06:13;;;;;;;10.68;7.25;;;15.90;99.90;;;;;;5099770;28;20031;-67
2021/10/20 07:08:38;;;;;;;12.27;6.70;;;15.90;99.90;;;;;;5098005;28;20047;-67
2021/10/20 07:11:04;;;;;;;12.60;6.95;;;15.90;99.90;;;;;;5104087;28;20051;-67
2021/10/20 07:13:29;;;;;;;12.57;6.78;;;15.90;99.90;;;;;;5106903;28;20028;-72
2021/10/20 07:15:58;;;;;;;10.82;6.18;;;15.90;99.90;;;;;;5111076;28;20106;-72
2021/10/20 07:18:24;;;;;;;10.05;7.05;;;16.00;99.90;;;;;;5100754;28;20107;-71
2021/10/20 07:20:49;;;;;;;9.73;6.10;;;16.00;99.90;;;;;;5096085;28;20035;-72
2021/10/20 07:23:15;;;;;;;9.32;7.05;;;16.10;99.90;;;;;;5096842;28;20435;-72
2021/10/20 07:25:41;;;;;;;9.45;5.95;;;16.20;99.90;;;;;;5100151;28;20070;-71
2021/10/20 07:28:09;;;;;;;10.13;6.90;;;16.30;99.90;;;;;;5105708;28;20496;-72
2021/10/20 07:30:36;;;;;;;9.68;6.32;;;16.40;99.90;;;;;;5099525;28;20016;-72
2021/10/20 07:33:01;;;;;;;9.27;5.65;;;16.80;99.90;;;;;;5101044;28;20358;-72
2021/10/20 07:35:27;;;;;;;10.48;6.80;;;17.20;99.90;;;;;;5098409;28;20020;-72
2021/10/20 07:37:52;;;;;;;8.85;6.60;;;17.70;99.90;;;;;;5107304;28;20364;-72
2021/10/20 07:40:18;;;;;;;11.95;6.82;;;18.10;99.90;;;;;;5111741;28;20528;-72
2021/10/20 07:42:45;;;;;;;13.55;6.68;;;18.20;99.90;;;;;;5108169;28;20020;-72
2021/10/20 07:45:15;;;;;;;13.90;6.43;;;18.10;99.90;;;;;;5096007;28;20752;-72
2021/10/20 07:47:42;;;;;;;8.23;6.30;;;17.90;99.90;;;;;;5094625;28;20036;-72
2021/10/20 07:50:08;;;;;;;9.63;5.80;;;17.60;99.90;;;;;;5097766;28;20040;-72
2021/10/20 07:52:34;;;;;;;7.50;6.03;;;17.30;99.90;;;;;;5100475;28;20050;-72
2021/10/20 07:55:02;;;;;;;11.82;6.22;;;17.20;99.90;;;;;;5095652;28;20020;-72
2021/10/20 07:57:29;;;;;;;9.75;6.10;;;17.10;99.90;;;;;;5096811;28;20062;-72
2021/10/20 07:59:55;;;;;;;9.15;5.57;;;17.20;99.90;;;;;;5096475;28;20016;-73
2021/10/20 08:02:21;;;;;;;8.05;5.28;;;17.30;99.90;;;;;;5097816;28;20020;-73
2021/10/20 08:04:47;;;;;;;8.15;5.80;;;17.30;99.90;;;;;;5095336;28;20036;-72
2021/10/20 08:07:12;;;;;;;6.68;5.85;;;17.30;99.90;;;;;;5101740;28;20028;-72
2021/10/20 08:09:38;;;;;;;9.43;5.82;;;17.30;99.90;;;;;;5100679;28;20027;-72
2021/10/20 08:12:04;;;;;;;8.57;5.57;;;17.30;99.90;;;;;;5101583;28;20045;-72
2021/10/20 08:14:30;;;;;;;7.40;5.40;;;17.30;99.90;;;;;;5098790;28;20028;-73
2021/10/20 08:16:56;;;;;;;8.48;5.57;;;17.30;99.90;;;;;;5095400;28;20111;-73
2021/10/20 08:19:21;;;;;;;7.68;5.55;;;17.30;99.90;;;;;;5103485;28;20016;-73
2021/10/20 08:21:47;;;;;;;9.70;5.60;;;17.40;99.90;;;;;;5104526;28;20066;-73
2021/10/20 08:24:12;;;;;;;8.27;5.50;;;17.80;99.90;;;;;;5095338;28;20047;-72
2021/10/20 08:26:38;;;;;;;7.80;5.65;;;18.50;99.90;;;;;;5098012;28;20088;-72
2021/10/20 08:29:03;;;;;;;7.55;5.18;;;18.70;99.90;;;;;;5098224;28;20028;-73
2021/10/20 08:31:29;;;;;;;8.55;5.15;;;19.00;99.90;;;;;;5111020;28;20032;-73
2021/10/20 08:33:54;;;;;;;7.72;5.20;;;19.20;99.90;;;;;;5112004;28;20019;-73
2021/10/20 08:36:20;;;;;;;7.20;4.85;;;19.40;99.90;;;;;;5097837;28;20023;-72
2021/10/20 08:38:46;;;;;;;9.23;5.25;;;19.20;99.90;;;;;;5094862;28;20423;-72
2021/10/20 08:41:12;;;;;;;9.13;5.63;;;19.10;99.90;;;;;;5094519;28;20470;-72
2021/10/20 08:43:39;;;;;;;8.98;5.35;;;18.90;99.90;;;;;;5093903;28;20116;-73
2021/10/20 08:46:05;;;;;;;9.25;5.95;;;18.50;99.90;;;;;;5096579;28;20035;-73
2021/10/20 08:48:32;;;;;;;10.35;5.65;;;18.30;99.90;;;;;;5091827;28;20031;-73
2021/10/20 08:51:01;;;;;;;7.40;5.60;;;18.20;99.90;;;;;;5096810;28;20020;-73
2021/10/20 08:53:27;;;;;;;7.65;5.60;;;18.00;99.90;;;;;;5095070;28;20091;-73
2021/10/20 08:55:53;;;;;;;8.45;6.03;;;17.90;99.90;;;;;;5103495;28;20020;-73
2021/10/20 08:58:20;;;;;;;11.05;5.97;;;17.90;99.90;;;;;;5097745;28;20028;-73
2021/10/20 09:00:46;;;;;;;8.30;6.03;;;18.00;99.90;;;;;;5093490;28;20069;-73
2021/10/20 09:03:13;;;;;;;9.45;5.22;;;18.10;99.90;;;;;;5094393;28;20032;-73
2021/10/20 09:05:39;;;;;;;6.80;5.38;;;18.50;99.90;;;;;;5094067;28;20035;-73
2021/10/20 09:08:06;;;;;;;6.22;5.55;;;19.30;99.90;;;;;;5093942;28;20123;-73
2021/10/20 09:10:32;;;;;;;8.10;5.57;;;19.30;99.90;;;;;;5093769;28;20385;-72
2021/10/20 09:12:59;;;;;;;8.18;5.75;;;19.70;99.90;;;;;;5094691;28;20410;-73
2021/10/20 09:15:28;;;;;;;9.05;5.75;;;20.00;99.90;;;;;;5094794;28;20042;-73
2021/10/20 09:18:01;;;;;;;6.45;5.75;;;20.10;99.90;;;;;;5094047;28;20481;-74
2021/10/20 09:20:36;;;;;;;9.23;5.45;;;19.70;99.90;;;;;;5093185;28;20178;-73
2021/10/20 09:23:09;;;;;;;10.25;5.97;;;19.70;99.90;;;;;;5074817;28;20035;-73
2021/10/20 09:28:32;;;;;;;6.13;5.38;;;20.00;99.90;;;;;;5111095;27;20458;-71
2021/10/20 09:31:02;;;;;;;9.77;6.43;;;19.60;99.90;;;;;;5111336;28;20024;-66
2021/10/20 09:33:28;;;;;;;11.10;5.70;;;19.20;99.90;;;;;;5093307;28;20047;-70
2021/10/20 09:36:08;;;;;;;11.25;6.00;;;19.00;99.90;;;;;;5110254;28;20023;-70
2021/10/20 09:38:36;;;;;;;13.60;6.47;;;18.90;99.90;;;;;;5111192;28;20066;-71
2021/10/20 09:41:06;;;;;;;9.40;5.63;;;18.70;99.90;;;;;;5109829;28;20062;-71
2021/10/20 09:43:31;;;;;;;9.68;6.13;;;18.60;99.90;;;;;;5110863;28;20016;-70
2021/10/20 09:45:57;;;;;;;8.15;6.03;;;18.40;99.90;;;;;;5110460;28;20019;-70
2021/10/20 09:48:25;;;;;;;11.70;6.07;;;18.20;99.90;;;;;;5111032;28;20058;-72
2021/10/20 09:50:58;;;;;;;11.13;5.90;;;18.60;99.90;;;;;;5110906;28;20016;-72
2021/10/20 09:53:27;;;;;;;9.67;6.30;;;18.60;99.90;;;;;;5107490;28;20381;-72
2021/10/20 09:55:53;;;;;;;9.35;5.85;;;18.60;99.90;;;;;;5110712;28;20266;-72
2021/10/20 09:58:18;;;;;;;8.68;6.22;;;18.70;99.90;;;;;;5110501;28;20028;-72
2021/10/20 10:00:44;;;;;;;11.45;6.35;;;18.50;99.90;;;;;;5110820;28;20028;-72
2021/10/20 10:03:11;;;;;;;9.23;6.18;;;18.50;99.90;;;;;;5110183;28;20103;-72
2021/10/20 10:05:37;;;;;;;10.93;6.22;;;18.30;99.90;;;;;;5121406;28;20084;-71
2021/10/20 10:08:03;;;;;;;10.40;6.35;;;18.10;99.90;;;;;;5112959;28;20031;-71
2021/10/20 10:10:29;;;;;;;8.25;6.53;;;18.10;99.90;;;;;;5116244;28;20024;-72
2021/10/20 10:12:59;;;;;;;9.45;5.93;;;18.10;99.90;;;;;;5110359;28;20022;-72
2021/10/20 10:15:27;;;;;;;9.68;5.90;;;18.10;99.90;;;;;;5114087;28;20051;-71
2021/10/20 10:17:55;;;;;;;9.63;5.95;;;18.10;99.90;;;;;;5130437;28;20019;-72
2021/10/20 10:20:26;;;;;;;9.07;6.30;;;18.10;99.90;;;;;;5121347;28;20023;-72
2021/10/20 10:22:55;;;;;;;7.38;6.13;;;18.00;99.90;;;;;;5109896;28;20026;-72
2021/10/20 10:25:32;;;;;;;9.27;6.00;;;18.00;99.90;;;;;;5116013;28;20027;-72
2021/10/20 10:30:46;;;;;;;7.38;5.75;;;17.90;99.90;;;;;;5120066;27;20749;-72
2021/10/20 10:33:17;;;;;;;10.70;6.50;;;17.80;99.90;;;;;;5122615;28;20031;-72
2021/10/20 10:35:43;;;;;;;8.88;6.15;;;17.80;99.90;;;;;;5110720;28;20032;-72
2021/10/20 10:38:08;;;;;;;8.68;5.93;;;18.00;99.90;;;;;;5112086;28;20431;-73
2021/10/20 10:40:34;;;;;;;12.48;6.15;;;18.10;99.90;;;;;;5134264;27;20080;-72
2021/10/20 10:43:05;;;;;;;9.38;6.70;;;18.00;99.90;;;;;;5095202;28;20104;-72
2021/10/20 10:45:31;;;;;;;8.25;5.88;;;18.00;99.90;;;;;;5105363;28;20073;-72
2021/10/20 10:50:42;;;;;;;10.30;6.38;;;18.00;99.90;;;;;;5070668;28;20406;-71
2021/10/20 10:53:09;;;;;;;10.48;6.13;;;18.00;99.90;;;;;;5077486;28;20089;-71
2021/10/20 10:55:35;;;;;;;11.07;6.30;;;18.00;99.90;;;;;;5089463;28;20389;-71
2021/10/20 10:58:14;;;;;;;9.85;6.90;;;18.00;99.90;;;;;;5078043;28;20086;-71
2021/10/20 11:00:46;;;;;;;12.32;6.50;;;17.90;99.90;;;;;;5056535;28;20020;-71
2021/10/20 11:03:15;;;;;;;10.45;6.78;;;17.80;99.90;;;;;;5062519;28;20024;-71
2021/10/20 11:05:49;;;;;;;11.35;6.38;;;17.80;99.90;;;;;;5047085;28;20024;-71
2021/10/20 11:08:15;;;;;;;11.82;6.78;;;17.80;99.90;;;;;;5067742;28;20107;-71
2021/10/20 11:10:42;;;;;;;12.00;7.22;;;17.80;99.90;;;;;;5069640;28;20047;-71
2021/10/20 11:13:09;;;;;;;14.07;7.13;;;17.80;99.90;;;;;;5070477;28;20478;-70
2021/10/20 11:15:36;;;;;;;16.20;7.15;;;17.70;99.90;;;;;;5077150;28;20032;-72
2021/10/20 11:18:02;;;;;;;9.38;6.82;;;17.80;99.90;;;;;;5070057;28;20028;-71
2021/10/20 11:20:33;;;;;;;10.30;7.38;;;18.00;99.90;;;;;;5081196;28;20028;-71
2021/10/20 11:23:04;;;;;;;11.73;7.10;;;18.10;99.90;;;;;;5068860;28;20036;-72
2021/10/20 11:25:30;;;;;;;14.55;7.10;;;18.00;99.90;;;;;;5082539;28;20032;-71
2021/10/20 11:27:57;;;;;;;16.30;7.13;;;17.90;99.90;;;;;;5067699;28;20079;-71
2021/10/20 11:30:27;;;;;;;9.75;6.10;;;17.80;99.90;;;;;;5069969;28;20110;-71
2021/10/20 11:32:54;;;;;;;10.30;6.95;;;17.90;99.90;;;;;;5067345;28;20504;-71
2021/10/20 11:35:23;;;;;;;13.23;7.32;;;17.90;99.90;;;;;;5077049;28;20025;-71
2021/10/20 11:37:58;;;;;;;10.68;7.43;;;17.80;99.90;;;;;;5071665;28;20047;-71
2021/10/20 11:40:25;;;;;;;8.43;6.75;;;17.70;99.90;;;;;;5071532;28;20033;-71
2021/10/20 11:42:51;;;;;;;12.90;7.63;;;17.60;99.90;;;;;;5063480;28;20075;-71
2021/10/20 11:45:18;;;;;;;7.70;6.90;;;17.70;99.90;;;;;;5069678;28;20028;-71
2021/10/20 11:47:45;;;;;;;7.95;6.90;;;17.70;99.90;;;;;;5084685;28;20032;-71
2021/10/20 11:50:12;;;;;;;9.13;6.93;;;17.80;99.90;;;;;;5069121;28;20430;-72
2021/10/20 11:52:40;;;;;;;9.18;6.85;;;17.90;99.90;;;;;;5069314;28;20521;-72
2021/10/20 11:55:06;;;;;;;13.25;6.93;;;18.00;99.90;;;;;;5078703;28;20017;-71
2021/10/20 11:57:32;;;;;;;11.25;7.07;;;17.90;99.90;;;;;;5069392;28;20013;-71
2021/10/20 11:59:57;;;;;;;8.75;6.30;;;17.90;99.90;;;;;;5067517;28;20039;-71
2021/10/20 12:02:31;;;;;;;10.77;7.10;;;17.80;99.90;;;;;;5062877;28;21738;-71
2021/10/20 12:04:56;;;;;;;;;;;17.80;99.90;;;;;;5047300;28;20049;-71
2021/10/20 12:07:29;;;;;;;8.52;7.53;;;17.70;99.90;;;;;;5048609;28;19962;-71
2021/10/20 12:09:57;;;;;;;10.60;6.80;;;17.60;99.90;;;;;;5052017;28;20032;-71
2021/10/20 12:12:23;;;;;;;10.60;6.63;;;17.60;99.90;;;;;;5043305;28;20021;-71
2021/10/20 12:14:48;;;;;;;9.80;7.20;;;17.50;99.90;;;;;;5053506;28;20028;-72
2021/10/20 12:17:15;;;;;;;9.75;7.22;;;17.40;99.90;;;;;;5053212;28;20368;-71
2021/10/20 12:19:43;;;;;;;9.40;7.20;;;17.40;99.90;;;;;;5063739;28;20040;-71
2021/10/20 12:22:13;;;;;;;9.38;7.22;;;17.40;99.90;;;;;;5074909;28;20043;-72
2021/10/20 12:24:47;;;;;;;8.07;6.70;;;17.40;99.90;;;;;;5052923;28;20033;-72
2021/10/20 12:27:13;;;;;;;10.13;7.47;;;17.40;99.90;;;;;;5054761;28;20037;-72
2021/10/20 12:29:41;;;;;;;10.30;7.82;;;17.40;99.90;;;;;;5061977;28;20032;-72
2021/10/20 12:32:18;;;;;;;9.23;7.47;;;17.30;99.90;;;;;;5075574;28;20027;-72
2021/10/20 12:35:12;;;;;;;10.75;7.75;;;17.30;99.90;;;;;;5051464;28;20033;-71
2021/10/20 12:37:39;;;;;;;;;;;17.30;99.90;;;;;;5055826;28;20013;-71
2021/10/20 12:40:12;;;;;;;10.52;7.25;;;17.30;99.90;;;;;;5068057;28;19915;-71
2021/10/20 12:42:44;;;;;;;14.63;7.93;;;17.30;99.90;;;;;;5063279;28;20029;-72
2021/10/20 12:45:11;;;;;;;11.75;7.32;;;17.30;99.90;;;;;;5053018;28;20454;-72
2021/10/20 12:47:41;;;;;;;9.02;7.05;;;17.30;99.90;;;;;;5054709;28;20036;-72
2021/10/20 12:50:08;;;;;;;9.10;6.95;;;17.30;99.90;;;;;;5054258;28;20037;-71